Time,TemperatureF,DewpointF,PressureIn,WindDirection,WindDirectionDegrees,WindSpeedMPH,WindSpeedGustMPH,Humidity,HourlyPrecipIn,Conditions,Clouds,dailyrainin,SoftwareType,DateUTC
2013-06-16 11:33:00,70.0,70.0,29.99,SSE,160,3.0,-999.0,100,-99.99,,,-99.99,,2013-06-16 16:33:00,
2013-06-16 11:43:00,70.0,70.0,29.99,SSE,160,3.0,-999.0,100,-99.99,,,-99.99,,2013-06-16 16:43:00,
2013-06-16 11:53:00,72.0,72.0,29.99,North,0,0.0,-999.0,100,-99.99,,,-99.99,,2013-06-16 16:53:00,
2013-06-16 12:02:00,72.0,72.0,29.99,South,180,3.0,-999.0,100,-99.99,,,-99.99,,2013-06-16 17:02:00,
2013-06-16 12:12:00,72.0,72.0,29.99,SSW,210,3.0,-999.0,100,-99.99,,,-99.99,,2013-06-16 17:12:00,
2013-06-16 12:22:00,73.0,72.0,29.99,North,0,0.0,-999.0,94,-99.99,,,-99.99,,2013-06-16 17:22:00,
2013-06-16 12:34:00,73.0,72.0,29.99,North,0,0.0,-999.0,94,-99.99,,,-99.99,,2013-06-16 17:34:00,
2013-06-16 12:43:00,75.0,70.0,29.99,North,0,0.0,-999.0,83,-99.99,,,-99.99,,2013-06-16 17:43:00,
2013-06-16 12:53:00,73.0,70.0,30.00,North,0,0.0,-999.0,88,-99.99,,,-99.99,,2013-06-16 17:53:00,
2013-06-16 13:02:00,73.0,70.0,29.99,SSW,210,5.0,-999.0,88,-99.99,,,-99.99,,2013-06-16 18:02:00,
2013-06-16 13:12:00,73.0,70.0,29.99,North,0,0.0,-999.0,88,-99.99,,,-99.99,,2013-06-16 18:12:00,
2013-06-16 13:22:00,73.0,70.0,29.99,North,0,0.0,-999.0,88,-99.99,,,-99.99,,2013-06-16 18:22:00,
2013-06-16 13:33:00,75.0,70.0,29.99,SW,230,3.0,-999.0,83,-99.99,,,-99.99,,2013-06-16 18:33:00,
2013-06-16 13:43:00,75.0,70.0,29.99,SSW,200,3.0,-999.0,83,-99.99,,,-99.99,,2013-06-16 18:43:00,
2013-06-16 13:52:00,75.0,70.0,29.99,South,190,5.0,-999.0,83,-99.99,,,-99.99,,2013-06-16 18:52:00,
2013-06-16 14:01:00,73.0,70.0,29.99,South,190,5.0,-999.0,88,-99.99,,,-99.99,,2013-06-16 19:01:00,
2013-06-16 14:11:00,73.0,70.0,30.00,North,0,0.0,-999.0,88,-99.99,,,-99.99,,2013-06-16 19:11:00,
2013-06-16 14:22:00,73.0,70.0,30.00,North,0,0.0,-999.0,88,-99.99,,,-99.99,,2013-06-16 19:22:00,
2013-06-16 14:34:00,73.0,70.0,29.99,North,0,0.0,-999.0,88,-99.99,,,-99.99,,2013-06-16 19:34:00,
2013-06-16 14:43:00,73.0,73.0,29.99,North,350,5.0,-999.0,100,-99.99,,,-99.99,,2013-06-16 19:43:00,
2013-06-16 14:53:00,73.0,73.0,29.99,North,350,5.0,-999.0,100,-99.99,,,-99.99,,2013-06-16 19:53:00,
2013-06-16 15:02:00,72.0,72.0,29.99,North,360,3.0,-999.0,100,-99.99,,,-99.99,,2013-06-16 20:02:00,
2013-06-16 15:11:00,73.0,73.0,29.99,NNW,340,3.0,-999.0,100,-99.99,,,-99.99,,2013-06-16 20:11:00,
2013-06-16 15:22:00,73.0,73.0,29.99,North,360,3.0,-999.0,100,-99.99,,,-99.99,,2013-06-16 20:22:00,
2013-06-16 15:33:00,75.0,72.0,29.99,North,350,3.0,-999.0,88,-99.99,,,-99.99,,2013-06-16 20:33:00,
2013-06-16 15:42:00,75.0,72.0,29.99,North,350,3.0,-999.0,88,-99.99,,,-99.99,,2013-06-16 20:42:00,
2013-06-16 15:53:00,77.0,72.0,29.98,NW,320,3.0,-999.0,83,-99.99,,,-99.99,,2013-06-16 20:53:00,
2013-06-16 16:01:00,77.0,72.0,29.97,North,0,0.0,-999.0,83,-99.99,,,-99.99,,2013-06-16 21:01:00,
2013-06-16 16:11:00,77.0,72.0,29.97,West,270,3.0,-999.0,83,-99.99,,,-99.99,,2013-06-16 21:11:00,
2013-06-16 16:22:00,79.0,72.0,29.97,WNW,290,3.0,-999.0,78,-99.99,,,-99.99,,2013-06-16 21:22:00,
2013-06-16 16:32:00,79.0,72.0,29.97,NW,310,3.0,-999.0,78,-99.99,,,-99.99,,2013-06-16 21:32:00,
2013-06-16 16:42:00,79.0,72.0,29.97,North,350,5.0,-999.0,78,-99.99,,,-99.99,,2013-06-16 21:42:00,
2013-06-16 16:53:00,79.0,72.0,29.97,West,280,6.0,-999.0,78,-99.99,,,-99.99,,2013-06-16 21:53:00,
2013-06-16 17:01:00,79.0,72.0,29.97,West,280,6.0,-999.0,78,-99.99,,,-99.99,,2013-06-16 22:01:00,
2013-06-16 17:12:00,81.0,72.0,29.97,NNW,340,3.0,-999.0,74,-99.99,,,-99.99,,2013-06-16 22:12:00,
2013-06-16 17:22:00,79.0,72.0,29.97,North,0,0.0,-999.0,78,-99.99,,,-99.99,,2013-06-16 22:22:00,
2013-06-16 17:32:00,79.0,72.0,29.97,North,0,0.0,-999.0,78,-99.99,,,-99.99,,2013-06-16 22:32:00,
2013-06-16 17:42:00,79.0,72.0,29.97,North,0,0.0,-999.0,78,-99.99,,,-99.99,,2013-06-16 22:42:00,
2013-06-16 17:52:00,79.0,72.0,29.97,North,0,0.0,-999.0,78,-99.99,,,-99.99,,2013-06-16 22:52:00,
2013-06-16 18:01:00,79.0,72.0,29.96,North,0,0.0,-999.0,78,-99.99,,,-99.99,,2013-06-16 23:01:00,
2013-06-16 18:11:00,81.0,72.0,29.96,NNE,20,3.0,-999.0,74,-99.99,,,-99.99,,2013-06-16 23:11:00,
2013-06-16 18:22:00,79.0,72.0,29.96,NNW,340,3.0,-999.0,78,-99.99,,,-99.99,,2013-06-16 23:22:00,
2013-06-16 18:32:00,79.0,72.0,29.96,NNW,340,3.0,-999.0,78,-99.99,,,-99.99,,2013-06-16 23:32:00,
2013-06-16 18:42:00,77.0,72.0,29.96,North,360,6.0,-999.0,83,-99.99,,,-99.99,,2013-06-16 23:42:00,
2013-06-16 18:52:00,77.0,72.0,29.96,North,0,0.0,-999.0,83,-99.99,,,-99.99,,2013-06-16 23:52:00,
2013-06-16 19:02:00,77.0,72.0,29.96,North,0,0.0,-999.0,83,-99.99,,,-99.99,,2013-06-17 00:02:00,
2013-06-16 19:11:00,77.0,72.0,29.96,North,0,0.0,-999.0,83,-99.99,,,-99.99,,2013-06-17 00:11:00,
2013-06-16 19:22:00,79.0,72.0,29.95,NNW,340,3.0,-999.0,78,-99.99,,,-99.99,,2013-06-17 00:22:00,
2013-06-16 19:32:00,79.0,72.0,29.95,NNW,340,5.0,-999.0,78,-99.99,,,-99.99,,2013-06-17 00:32:00,
2013-06-16 19:43:00,77.0,72.0,29.94,North,360,5.0,-999.0,83,-99.99,,,-99.99,,2013-06-17 00:43:00,
2013-06-16 19:52:00,77.0,72.0,29.94,North,360,5.0,-999.0,83,-99.99,,,-99.99,,2013-06-17 00:52:00,
2013-06-16 20:02:00,77.0,72.0,29.94,North,360,5.0,-999.0,83,-99.99,,,-99.99,,2013-06-17 01:02:00,
2013-06-16 20:12:00,77.0,72.0,29.93,NE,40,3.0,-999.0,83,-99.99,,,-99.99,,2013-06-17 01:12:00,
2013-06-16 20:22:00,75.0,72.0,29.93,North,0,0.0,-999.0,88,-99.99,,,-99.99,,2013-06-17 01:22:00,
2013-06-16 20:32:00,75.0,72.0,29.93,ENE,70,3.0,-999.0,88,-99.99,,,-99.99,,2013-06-17 01:32:00,
2013-06-16 20:43:00,75.0,72.0,29.94,North,0,0.0,-999.0,88,-99.99,,,-99.99,,2013-06-17 01:43:00,
2013-06-16 20:53:00,75.0,72.0,29.95,North,0,0.0,-999.0,88,-99.99,,,-99.99,,2013-06-17 01:53:00,
2013-06-16 21:02:00,75.0,72.0,29.95,North,0,0.0,-999.0,88,-99.99,,,-99.99,,2013-06-17 02:02:00,
2013-06-16 21:12:00,75.0,72.0,29.95,North,0,0.0,-999.0,88,-99.99,,,-99.99,,2013-06-17 02:12:00,
2013-06-16 21:22:00,75.0,72.0,29.95,North,0,0.0,-999.0,88,-99.99,,,-99.99,,2013-06-17 02:22:00,
2013-06-16 21:34:00,73.0,73.0,29.96,NE,50,3.0,-999.0,100,-99.99,,,-99.99,,2013-06-17 02:34:00,
2013-06-16 21:43:00,73.0,73.0,29.97,North,0,0.0,-999.0,100,-99.99,,,-99.99,,2013-06-17 02:43:00,
2013-06-16 21:53:00,73.0,73.0,29.97,North,0,0.0,-999.0,100,-99.99,,,-99.99,,2013-06-17 02:53:00,
2013-06-16 22:02:00,73.0,73.0,29.98,North,0,0.0,-999.0,100,-99.99,,,-99.99,,2013-06-17 03:02:00,
2013-06-16 22:12:00,73.0,73.0,29.99,NE,40,5.0,-999.0,100,-99.99,,,-99.99,,2013-06-17 03:12:00,
2013-06-16 22:22:00,73.0,73.0,29.99,NE,50,3.0,-999.0,100,-99.99,,,-99.99,,2013-06-17 03:22:00,
2013-06-16 22:33:00,73.0,73.0,29.99,ENE,60,5.0,-999.0,100,-99.99,,,-99.99,,2013-06-17 03:33:00,
2013-06-16 22:44:00,73.0,73.0,29.98,East,80,3.0,-999.0,100,-99.99,,,-99.99,,2013-06-17 03:44:00,
2013-06-16 22:53:00,73.0,73.0,29.98,East,100,3.0,-999.0,100,-99.99,,,-99.99,,2013-06-17 03:53:00,
2013-06-16 23:02:00,73.0,73.0,29.98,North,0,0.0,-999.0,100,-99.99,,,-99.99,,2013-06-17 04:02:00,
2013-06-16 23:12:00,73.0,73.0,29.98,NE,40,3.0,-999.0,100,-99.99,,,-99.99,,2013-06-17 04:12:00,
2013-06-16 23:22:00,72.0,72.0,29.98,NE,50,5.0,-999.0,100,-99.99,,,-99.99,,2013-06-17 04:22:00,
2013-06-16 23:34:00,72.0,72.0,29.98,NE,50,5.0,-999.0,100,-99.99,,,-99.99,,2013-06-17 04:34:00,
2013-06-16 23:43:00,72.0,72.0,29.98,North,0,0.0,-999.0,100,-99.99,,,-99.99,,2013-06-17 04:43:00,
2013-06-16 23:53:00,72.0,72.0,29.99,North,10,5.0,-999.0,100,-99.99,,,-99.99,,2013-06-17 04:53:00,